sensor_id;sensor_type;location;lat;lon;timestamp;pressure;altitude;pressure_sealevel;temperature;humidity
58967;BME280;44744;51.894;5.080;2023-01-29T00:00:46;103166.16;;;2.85;74.39
58967;BME280;44744;51.894;5.080;2023-01-29T00:01:47;103165.66;;;2.87;74.47
58967;BME280;44744;51.894;5.080;2023-01-29T00:02:48;103168.14;;;2.88;74.45
58967;BME280;44744;51.894;5.080;2023-01-29T00:03:50;103168.45;;;2.86;74.25
58967;BME280;44744;51.894;5.080;2023-01-29T00:04:50;103170.71;;;2.85;74.19
58967;BME280;44744;51.894;5.080;2023-01-29T00:05:51;103170.14;;;2.83;74.34
58967;BME280;44744;51.894;5.080;2023-01-29T00:06:51;103169.77;;;2.81;74.34
58967;BME280;44744;51.894;5.080;2023-01-29T00:07:51;103172.56;;;2.81;74.31
58967;BME280;44744;51.894;5.080;2023-01-29T00:08:52;103169.91;;;2.79;74.38
58967;BME280;44744;51.894;5.080;2023-01-29T00:09:52;103167.64;;;2.79;74.27
58967;BME280;44744;51.894;5.080;2023-01-29T00:10:59;103164.32;;;2.78;74.30
58967;BME280;44744;51.894;5.080;2023-01-29T00:12:00;103162.39;;;2.78;74.33
58967;BME280;44744;51.894;5.080;2023-01-29T00:13:00;103160.47;;;2.78;74.30
58967;BME280;44744;51.894;5.080;2023-01-29T00:14:00;103158.36;;;2.78;74.31
58967;BME280;44744;51.894;5.080;2023-01-29T00:15:00;103156.98;;;2.79;74.40
58967;BME280;44744;51.894;5.080;2023-01-29T00:16:01;103154.52;;;2.77;74.48
58967;BME280;44744;51.894;5.080;2023-01-29T00:17:02;103153.48;;;2.79;74.58
58967;BME280;44744;51.894;5.080;2023-01-29T00:18:02;103156.29;;;2.79;74.62
58967;BME280;44744;51.894;5.080;2023-01-29T00:19:03;103151.38;;;2.78;74.54
58967;BME280;44744;51.894;5.080;2023-01-29T00:20:03;103148.40;;;2.78;74.72
58967;BME280;44744;51.894;5.080;2023-01-29T00:21:08;103151.22;;;2.79;74.70
58967;BME280;44744;51.894;5.080;2023-01-29T00:22:09;103143.88;;;2.79;74.83
58967;BME280;44744;51.894;5.080;2023-01-29T00:23:09;103143.02;;;2.79;74.72
58967;BME280;44744;51.894;5.080;2023-01-29T00:24:09;103142.84;;;2.80;74.90
58967;BME280;44744;51.894;5.080;2023-01-29T00:25:10;103138.84;;;2.81;74.82
58967;BME280;44744;51.894;5.080;2023-01-29T00:26:11;103132.92;;;2.82;74.73
58967;BME280;44744;51.894;5.080;2023-01-29T00:27:11;103135.70;;;2.82;74.90
58967;BME280;44744;51.894;5.080;2023-01-29T00:28:12;103128.72;;;2.82;74.87
58967;BME280;44744;51.894;5.080;2023-01-29T00:29:13;103127.84;;;2.82;74.90
58967;BME280;44744;51.894;5.080;2023-01-29T00:30:14;103124.50;;;2.81;74.73
58967;BME280;44744;51.894;5.080;2023-01-29T00:31:18;103125.20;;;2.80;74.64
58967;BME280;44744;51.894;5.080;2023-01-29T00:32:19;103126.40;;;2.80;74.73
58967;BME280;44744;51.894;5.080;2023-01-29T00:33:19;103126.25;;;2.80;74.72
58967;BME280;44744;51.894;5.080;2023-01-29T00:34:20;103122.39;;;2.80;74.79
58967;BME280;44744;51.894;5.080;2023-01-29T00:35:20;103124.15;;;2.80;74.83
58967;BME280;44744;51.894;5.080;2023-01-29T00:36:21;103123.62;;;2.80;74.76
58967;BME280;44744;51.894;5.080;2023-01-29T00:37:22;103122.39;;;2.80;74.76
58967;BME280;44744;51.894;5.080;2023-01-29T00:38:22;103123.44;;;2.81;74.83
58967;BME280;44744;51.894;5.080;2023-01-29T00:39:22;103122.42;;;2.82;74.70
58967;BME280;44744;51.894;5.080;2023-01-29T00:40:24;103122.42;;;2.82;75.03
58967;BME280;44744;51.894;5.080;2023-01-29T00:41:29;103122.45;;;2.83;75.04
58967;BME280;44744;51.894;5.080;2023-01-29T00:42:30;103126.47;;;2.84;75.07
58967;BME280;44744;51.894;5.080;2023-01-29T00:43:30;103126.11;;;2.83;75.09
58967;BME280;44744;51.894;5.080;2023-01-29T00:44:30;103129.63;;;2.84;75.18
58967;BME280;44744;51.894;5.080;2023-01-29T00:45:31;103131.20;;;2.84;74.95
58967;BME280;44744;51.894;5.080;2023-01-29T00:46:31;103128.06;;;2.85;75.20
58967;BME280;44744;51.894;5.080;2023-01-29T00:47:31;103128.24;;;2.85;75.26
58967;BME280;44744;51.894;5.080;2023-01-29T00:48:32;103130.52;;;2.86;75.07
58967;BME280;44744;51.894;5.080;2023-01-29T00:49:33;103127.71;;;2.85;75.05
58967;BME280;44744;51.894;5.080;2023-01-29T00:50:33;103129.30;;;2.85;75.06
58967;BME280;44744;51.894;5.080;2023-01-29T00:51:34;103129.98;;;2.85;74.92
58967;BME280;44744;51.894;5.080;2023-01-29T00:52:35;103132.44;;;2.85;75.02
58967;BME280;44744;51.894;5.080;2023-01-29T00:53:35;103133.13;;;2.85;75.05
58967;BME280;44744;51.894;5.080;2023-01-29T00:54:35;103132.94;;;2.84;75.00
58967;BME280;44744;51.894;5.080;2023-01-29T00:55:36;103134.70;;;2.84;75.00
58967;BME280;44744;51.894;5.080;2023-01-29T00:56:36;103134.89;;;2.85;75.00
58967;BME280;44744;51.894;5.080;2023-01-29T00:57:37;103131.72;;;2.84;74.95
58967;BME280;44744;51.894;5.080;2023-01-29T00:58:38;103126.84;;;2.85;75.11
58967;BME280;44744;51.894;5.080;2023-01-29T00:59:38;103124.05;;;2.85;75.12
58967;BME280;44744;51.894;5.080;2023-01-29T01:00:38;103123.36;;;2.85;75.13
58967;BME280;44744;51.894;5.080;2023-01-29T01:01:38;103123.36;;;2.86;75.08
58967;BME280;44744;51.894;5.080;2023-01-29T01:02:39;103126.17;;;2.87;75.33
58967;BME280;44744;51.894;5.080;2023-01-29T01:03:39;103124.44;;;2.88;75.29
58967;BME280;44744;51.894;5.080;2023-01-29T01:04:39;103122.86;;;2.88;75.23
58967;BME280;44744;51.894;5.080;2023-01-29T01:05:40;103125.31;;;2.88;75.37
58967;BME280;44744;51.894;5.080;2023-01-29T01:06:41;103122.52;;;2.88;75.48
58967;BME280;44744;51.894;5.080;2023-01-29T01:07:46;103122.52;;;2.89;75.42
58967;BME280;44744;51.894;5.080;2023-01-29T01:08:47;103117.10;;;2.88;75.20
58967;BME280;44744;51.894;5.080;2023-01-29T01:09:55;103114.13;;;2.89;75.44
58967;BME280;44744;51.894;5.080;2023-01-29T01:11:09;103105.23;;;2.89;75.28
58967;BME280;44744;51.894;5.080;2023-01-29T01:12:19;103109.07;;;2.89;75.44
58967;BME280;44744;51.894;5.080;2023-01-29T01:13:19;103108.70;;;2.88;75.54
58967;BME280;44744;51.894;5.080;2023-01-29T01:14:20;103111.49;;;2.88;75.35
58967;BME280;44744;51.894;5.080;2023-01-29T01:15:22;103109.39;;;2.87;75.28
58967;BME280;44744;51.894;5.080;2023-01-29T01:16:23;103106.56;;;2.84;75.27
58967;BME280;44744;51.894;5.080;2023-01-29T01:17:23;103108.46;;;2.83;75.09
58967;BME280;44744;51.894;5.080;2023-01-29T01:18:23;103108.80;;;2.82;75.23
58967;BME280;44744;51.894;5.080;2023-01-29T01:19:24;103109.67;;;2.82;75.14
58967;BME280;44744;51.894;5.080;2023-01-29T01:20:29;103107.21;;;2.82;75.23
58967;BME280;44744;51.894;5.080;2023-01-29T01:21:31;103105.10;;;2.80;75.18
58967;BME280;44744;51.894;5.080;2023-01-29T01:22:32;103104.25;;;2.81;75.42
58967;BME280;44744;51.894;5.080;2023-01-29T01:23:32;103100.89;;;2.80;75.30
58967;BME280;44744;51.894;5.080;2023-01-29T01:24:32;103101.42;;;2.79;75.39
58967;BME280;44744;51.894;5.080;2023-01-29T01:25:33;103102.67;;;2.82;75.55
58967;BME280;44744;51.894;5.080;2023-01-29T01:26:33;103103.38;;;2.82;75.53
58967;BME280;44744;51.894;5.080;2023-01-29T01:27:33;103106.72;;;2.83;75.57
58967;BME280;44744;51.894;5.080;2023-01-29T01:28:34;103103.92;;;2.84;75.68
58967;BME280;44744;51.894;5.080;2023-01-29T01:29:34;103101.13;;;2.84;75.51
58967;BME280;44744;51.894;5.080;2023-01-29T01:30:35;103103.94;;;2.85;75.56
58967;BME280;44744;51.894;5.080;2023-01-29T01:31:35;103106.56;;;2.85;75.54
58967;BME280;44744;51.894;5.080;2023-01-29T01:32:35;103108.66;;;2.85;75.74
58967;BME280;44744;51.894;5.080;2023-01-29T01:33:36;103110.77;;;2.85;75.58
58967;BME280;44744;51.894;5.080;2023-01-29T01:34:36;103106.38;;;2.84;75.52
58967;BME280;44744;51.894;5.080;2023-01-29T01:35:37;103106.73;;;2.84;75.69
58967;BME280;44744;51.894;5.080;2023-01-29T01:36:38;103103.91;;;2.84;75.67
58967;BME280;44744;51.894;5.080;2023-01-29T01:37:38;103104.27;;;2.82;75.49
58967;BME280;44744;51.894;5.080;2023-01-29T01:38:38;103109.14;;;2.81;75.53
58967;BME280;44744;51.894;5.080;2023-01-29T01:39:39;103109.48;;;2.81;75.75
58967;BME280;44744;51.894;5.080;2023-01-29T01:40:43;103111.23;;;2.82;75.51
58967;BME280;44744;51.894;5.080;2023-01-29T01:41:44;103113.88;;;2.83;75.71
58967;BME280;44744;51.894;5.080;2023-01-29T01:42:49;103113.53;;;2.83;75.68
58967;BME280;44744;51.894;5.080;2023-01-29T01:43:54;103117.38;;;2.83;75.72
58967;BME280;44744;51.894;5.080;2023-01-29T01:45:01;103117.58;;;2.85;75.87
58967;BME280;44744;51.894;5.080;2023-01-29T01:46:02;103118.29;;;2.86;75.78
58967;BME280;44744;51.894;5.080;2023-01-29T01:47:02;103117.96;;;2.87;75.88
58967;BME280;44744;51.894;5.080;2023-01-29T01:48:20;103119.89;;;2.88;76.08
58967;BME280;44744;51.894;5.080;2023-01-29T01:49:22;103124.80;;;2.89;75.90
58967;BME280;44744;51.894;5.080;2023-01-29T01:50:30;103126.35;;;2.88;76.14
58967;BME280;44744;51.894;5.080;2023-01-29T01:51:35;103126.55;;;2.88;76.00
58967;BME280;44744;51.894;5.080;2023-01-29T01:52:42;103128.48;;;2.89;76.04
58967;BME280;44744;51.894;5.080;2023-01-29T01:53:51;103125.33;;;2.89;76.10
58967;BME280;44744;51.894;5.080;2023-01-29T01:54:58;103130.38;;;2.88;75.94
58967;BME280;44744;51.894;5.080;2023-01-29T01:56:01;103124.95;;;2.88;75.89
58967;BME280;44744;51.894;5.080;2023-01-29T01:57:06;103126.17;;;2.87;75.85
58967;BME280;44744;51.894;5.080;2023-01-29T01:58:12;103127.73;;;2.86;75.95
58967;BME280;44744;51.894;5.080;2023-01-29T01:59:16;103130.32;;;2.84;75.90
58967;BME280;44744;51.894;5.080;2023-01-29T02:00:19;103128.40;;;2.84;75.86
58967;BME280;44744;51.894;5.080;2023-01-29T02:01:22;103130.82;;;2.82;75.78
58967;BME280;44744;51.894;5.080;2023-01-29T02:02:24;103133.61;;;2.82;75.71
58967;BME280;44744;51.894;5.080;2023-01-29T02:03:26;103135.70;;;2.81;75.82
58967;BME280;44744;51.894;5.080;2023-01-29T02:04:27;103133.25;;;2.81;75.93
58967;BME280;44744;51.894;5.080;2023-01-29T02:05:29;103135.19;;;2.81;75.89
58967;BME280;44744;51.894;5.080;2023-01-29T02:06:32;103128.89;;;2.82;75.94
58967;BME280;44744;51.894;5.080;2023-01-29T02:07:33;103129.95;;;2.82;75.90
58967;BME280;44744;51.894;5.080;2023-01-29T02:08:36;103131.70;;;2.83;75.83
58967;BME280;44744;51.894;5.080;2023-01-29T02:09:49;103134.64;;;2.81;75.99
58967;BME280;44744;51.894;5.080;2023-01-29T02:10:50;103137.97;;;2.81;76.09
58967;BME280;44744;51.894;5.080;2023-01-29T02:11:51;103130.96;;;2.80;76.14
58967;BME280;44744;51.894;5.080;2023-01-29T02:12:52;103125.71;;;2.79;76.15
58967;BME280;44744;51.894;5.080;2023-01-29T02:13:52;103125.36;;;2.79;76.22
58967;BME280;44744;51.894;5.080;2023-01-29T02:14:53;103123.27;;;2.80;76.12
58967;BME280;44744;51.894;5.080;2023-01-29T02:15:53;103121.52;;;2.79;76.16
58967;BME280;44744;51.894;5.080;2023-01-29T02:16:53;103121.88;;;2.80;76.10
58967;BME280;44744;51.894;5.080;2023-01-29T02:17:54;103121.00;;;2.79;75.96
58967;BME280;44744;51.894;5.080;2023-01-29T02:18:55;103124.48;;;2.78;75.89
58967;BME280;44744;51.894;5.080;2023-01-29T02:19:59;103124.63;;;2.76;75.89
58967;BME280;44744;51.894;5.080;2023-01-29T02:23:42;103127.84;;;2.69;75.86
58967;BME280;44744;51.894;5.080;2023-01-29T02:24:59;103122.75;;;2.68;75.84
58967;BME280;44744;51.894;5.080;2023-01-29T02:26:08;103119.94;;;2.66;75.78
58967;BME280;44744;51.894;5.080;2023-01-29T02:27:18;103113.26;;;2.64;75.73
58967;BME280;44744;51.894;5.080;2023-01-29T02:28:31;103110.80;;;2.62;75.74
58967;BME280;44744;51.894;5.080;2023-01-29T02:31:05;103110.23;;;2.60;75.77
58967;BME280;44744;51.894;5.080;2023-01-29T02:32:58;103108.66;;;2.59;75.72
58967;BME280;44744;51.894;5.080;2023-01-29T02:33:52;103103.05;;;2.58;75.92
58967;BME280;44744;51.894;5.080;2023-01-29T02:35:19;103102.36;;;2.58;76.01
58967;BME280;44744;51.894;5.080;2023-01-29T02:36:30;103106.02;;;2.58;76.03
58967;BME280;44744;51.894;5.080;2023-01-29T02:38:00;103102.52;;;2.57;76.08
58967;BME280;44744;51.894;5.080;2023-01-29T02:39:27;103105.64;;;2.56;76.37
58967;BME280;44744;51.894;5.080;2023-01-29T02:40:42;103104.19;;;2.53;76.26
58967;BME280;44744;51.894;5.080;2023-01-29T02:42:00;103100.51;;;2.52;76.06
58967;BME280;44744;51.894;5.080;2023-01-29T02:43:22;103098.40;;;2.49;76.26
58967;BME280;44744;51.894;5.080;2023-01-29T02:44:47;103100.10;;;2.48;76.26
58967;BME280;44744;51.894;5.080;2023-01-29T02:46:15;103100.79;;;2.47;76.17
58967;BME280;44744;51.894;5.080;2023-01-29T02:47:21;103103.91;;;2.46;76.26
58967;BME280;44744;51.894;5.080;2023-01-29T02:48:24;103108.45;;;2.45;76.22
58967;BME280;44744;51.894;5.080;2023-01-29T02:51:02;103114.36;;;2.43;76.05
58967;BME280;44744;51.894;5.080;2023-01-29T02:52:37;103112.91;;;2.40;76.08
58967;BME280;44744;51.894;5.080;2023-01-29T02:55:16;103116.88;;;2.37;76.11
58967;BME280;44744;51.894;5.080;2023-01-29T02:56:27;103118.27;;;2.36;76.29
58967;BME280;44744;51.894;5.080;2023-01-29T02:57:36;103120.37;;;2.37;76.27
58967;BME280;44744;51.894;5.080;2023-01-29T02:58:48;103113.92;;;2.37;76.26
58967;BME280;44744;51.894;5.080;2023-01-29T02:59:56;103110.61;;;2.38;76.42
58967;BME280;44744;51.894;5.080;2023-01-29T03:01:09;103106.96;;;2.39;76.59
58967;BME280;44744;51.894;5.080;2023-01-29T03:02:19;103110.46;;;2.39;76.42
58967;BME280;44744;51.894;5.080;2023-01-29T03:03:27;103111.34;;;2.40;76.39
58967;BME280;44744;51.894;5.080;2023-01-29T03:04:32;103111.87;;;2.39;76.44
58967;BME280;44744;51.894;5.080;2023-01-29T03:05:57;103113.09;;;2.39;76.48
58967;BME280;44744;51.894;5.080;2023-01-29T03:07:05;103109.05;;;2.38;76.24
58967;BME280;44744;51.894;5.080;2023-01-29T03:08:10;103105.53;;;2.37;76.43
58967;BME280;44744;51.894;5.080;2023-01-29T03:09:25;103106.91;;;2.37;76.27
58967;BME280;44744;51.894;5.080;2023-01-29T03:10:38;103104.99;;;2.36;76.36
58967;BME280;44744;51.894;5.080;2023-01-29T03:11:41;103114.23;;;2.35;76.38
58967;BME280;44744;51.894;5.080;2023-01-29T03:12:47;103116.48;;;2.34;76.28
58967;BME280;44744;51.894;5.080;2023-01-29T03:13:59;103114.04;;;2.33;76.33
58967;BME280;44744;51.894;5.080;2023-01-29T03:15:07;103115.44;;;2.33;76.28
58967;BME280;44744;51.894;5.080;2023-01-29T03:16:19;103118.03;;;2.32;76.22
58967;BME280;44744;51.894;5.080;2023-01-29T03:17:23;103116.46;;;2.32;76.29
58967;BME280;44744;51.894;5.080;2023-01-29T03:18:30;103113.83;;;2.31;76.23
58967;BME280;44744;51.894;5.080;2023-01-29T03:19:40;103111.02;;;2.31;76.25
58967;BME280;44744;51.894;5.080;2023-01-29T03:20:46;103112.08;;;2.31;76.44
58967;BME280;44744;51.894;5.080;2023-01-29T03:21:59;103109.98;;;2.32;76.36
58967;BME280;44744;51.894;5.080;2023-01-29T03:23:12;103103.86;;;2.32;76.49
58967;BME280;44744;51.894;5.080;2023-01-29T03:24:49;103103.56;;;2.33;76.33
58967;BME280;44744;51.894;5.080;2023-01-29T03:25:43;103097.96;;;2.33;76.52
58967;BME280;44744;51.894;5.080;2023-01-29T03:26:53;103097.63;;;2.34;76.40
58967;BME280;44744;51.894;5.080;2023-01-29T03:27:58;103095.18;;;2.34;76.57
58967;BME280;44744;51.894;5.080;2023-01-29T03:29:00;103095.70;;;2.33;76.61
58967;BME280;44744;51.894;5.080;2023-01-29T03:30:04;103093.41;;;2.33;76.45
58967;BME280;44744;51.894;5.080;2023-01-29T03:31:09;103092.55;;;2.33;76.45
58967;BME280;44744;51.894;5.080;2023-01-29T03:32:12;103090.61;;;2.31;76.47
58967;BME280;44744;51.894;5.080;2023-01-29T03:33:15;103091.30;;;2.31;76.47
58967;BME280;44744;51.894;5.080;2023-01-29T03:34:24;103090.08;;;2.31;76.20
58967;BME280;44744;51.894;5.080;2023-01-29T03:35:30;103086.58;;;2.30;76.19
58967;BME280;44744;51.894;5.080;2023-01-29T03:36:39;103087.74;;;2.28;76.18
58967;BME280;44744;51.894;5.080;2023-01-29T03:37:45;103086.67;;;2.26;76.11
58967;BME280;44744;51.894;5.080;2023-01-29T03:38:46;103086.64;;;2.24;76.20
58967;BME280;44744;51.894;5.080;2023-01-29T03:39:47;103084.53;;;2.23;76.07
58967;BME280;44744;51.894;5.080;2023-01-29T03:41:27;103083.67;;;2.24;76.24
58967;BME280;44744;51.894;5.080;2023-01-29T03:44:07;103083.14;;;2.23;76.29
58967;BME280;44744;51.894;5.080;2023-01-29T03:46:26;103081.95;;;2.24;76.32
58967;BME280;44744;51.894;5.080;2023-01-29T03:47:42;103077.41;;;2.24;76.53
58967;BME280;44744;51.894;5.080;2023-01-29T03:48:47;103075.33;;;2.26;76.49
58967;BME280;44744;51.894;5.080;2023-01-29T03:49:59;103071.84;;;2.26;76.48
58967;BME280;44744;51.894;5.080;2023-01-29T03:52:23;103068.02;;;2.27;76.43
58967;BME280;44744;51.894;5.080;2023-01-29T03:58:02;103063.64;;;2.26;76.17
58967;BME280;44744;51.894;5.080;2023-01-29T03:59:17;103066.06;;;2.25;76.00
58967;BME280;44744;51.894;5.080;2023-01-29T04:00:27;103063.78;;;2.24;76.04
58967;BME280;44744;51.894;5.080;2023-01-29T04:01:41;103070.42;;;2.24;75.95
58967;BME280;44744;51.894;5.080;2023-01-29T04:03:01;103065.88;;;2.24;75.84
58967;BME280;44744;51.894;5.080;2023-01-29T04:04:23;103068.46;;;2.22;75.89
58967;BME280;44744;51.894;5.080;2023-01-29T04:05:27;103068.45;;;2.21;76.00
58967;BME280;44744;51.894;5.080;2023-01-29T04:06:31;103068.61;;;2.21;75.96
58967;BME280;44744;51.894;5.080;2023-01-29T04:07:34;103069.84;;;2.21;75.84
58967;BME280;44744;51.894;5.080;2023-01-29T04:08:44;103068.80;;;2.21;76.00
58967;BME280;44744;51.894;5.080;2023-01-29T04:09:49;103068.61;;;2.20;75.83
58967;BME280;44744;51.894;5.080;2023-01-29T04:10:51;103070.38;;;2.21;75.89
58967;BME280;44744;51.894;5.080;2023-01-29T04:12:04;103071.77;;;2.22;75.95
58967;BME280;44744;51.894;5.080;2023-01-29T04:13:09;103066.90;;;2.23;75.97
58967;BME280;44744;51.894;5.080;2023-01-29T04:14:11;103063.77;;;2.24;76.07
58967;BME280;44744;51.894;5.080;2023-01-29T04:15:14;103057.65;;;2.23;76.08
58967;BME280;44744;51.894;5.080;2023-01-29T04:16:22;103053.99;;;2.23;75.88
58967;BME280;44744;51.894;5.080;2023-01-29T04:17:29;103048.75;;;2.24;75.99
58967;BME280;44744;51.894;5.080;2023-01-29T04:18:32;103048.59;;;2.24;76.04
58967;BME280;44744;51.894;5.080;2023-01-29T04:19:33;103046.85;;;2.25;75.97
58967;BME280;44744;51.894;5.080;2023-01-29T04:20:34;103052.09;;;2.25;75.81
58967;BME280;44744;51.894;5.080;2023-01-29T04:21:34;103052.79;;;2.25;75.84
58967;BME280;44744;51.894;5.080;2023-01-29T04:22:37;103045.98;;;2.25;75.69
58967;BME280;44744;51.894;5.080;2023-01-29T04:23:38;103042.14;;;2.25;75.77
58967;BME280;44744;51.894;5.080;2023-01-29T04:24:40;103035.88;;;2.26;75.76
58967;BME280;44744;51.894;5.080;2023-01-29T04:25:45;103030.10;;;2.25;75.69
58967;BME280;44744;51.894;5.080;2023-01-29T04:28:09;103040.88;;;2.22;75.39
58967;BME280;44744;51.894;5.080;2023-01-29T04:32:07;103031.73;;;2.17;75.40
58967;BME280;44744;51.894;5.080;2023-01-29T04:41:21;103038.63;;;2.12;75.68
58967;BME280;44744;51.894;5.080;2023-01-29T04:43:33;103034.95;;;2.11;75.71
58967;BME280;44744;51.894;5.080;2023-01-29T04:45:01;103031.65;;;2.12;75.51
58967;BME280;44744;51.894;5.080;2023-01-29T04:47:23;103035.09;;;2.09;75.44
58967;BME280;44744;51.894;5.080;2023-01-29T04:48:45;103034.21;;;2.09;75.38
58967;BME280;44744;51.894;5.080;2023-01-29T04:50:11;103031.38;;;2.06;75.42
58967;BME280;44744;51.894;5.080;2023-01-29T04:51:24;103029.42;;;2.03;75.30
58967;BME280;44744;51.894;5.080;2023-01-29T04:52:51;103029.92;;;2.01;75.35
58967;BME280;44744;51.894;5.080;2023-01-29T04:54:39;103022.91;;;2.00;75.31
58967;BME280;44744;51.894;5.080;2023-01-29T04:55:51;103023.42;;;1.99;75.42
58967;BME280;44744;51.894;5.080;2023-01-29T04:58:41;103018.86;;;1.98;75.60
58967;BME280;44744;51.894;5.080;2023-01-29T04:59:51;103019.74;;;1.98;75.59
58967;BME280;44744;51.894;5.080;2023-01-29T05:00:56;103018.54;;;1.99;75.71
58967;BME280;44744;51.894;5.080;2023-01-29T05:02:05;103015.42;;;2.01;75.98
58967;BME280;44744;51.894;5.080;2023-01-29T05:03:11;103014.40;;;2.02;75.87
58967;BME280;44744;51.894;5.080;2023-01-29T05:04:14;103012.82;;;2.02;75.89
58967;BME280;44744;51.894;5.080;2023-01-29T05:05:19;103010.90;;;2.02;75.79
58967;BME280;44744;51.894;5.080;2023-01-29T05:06:21;103010.93;;;2.03;75.88
58967;BME280;44744;51.894;5.080;2023-01-29T05:07:22;103006.56;;;2.04;75.77
58967;BME280;44744;51.894;5.080;2023-01-29T05:08:24;103008.30;;;2.02;75.81
58967;BME280;44744;51.894;5.080;2023-01-29T05:09:26;103008.29;;;2.02;75.82
58967;BME280;44744;51.894;5.080;2023-01-29T05:10:27;103009.70;;;2.04;75.75
58967;BME280;44744;51.894;5.080;2023-01-29T05:11:29;103007.61;;;2.04;75.52
58967;BME280;44744;51.894;5.080;2023-01-29T05:12:32;103001.30;;;2.03;75.51
58967;BME280;44744;51.894;5.080;2023-01-29T05:13:35;102999.92;;;2.03;75.45
58967;BME280;44744;51.894;5.080;2023-01-29T05:14:41;102994.50;;;2.02;75.60
58967;BME280;44744;51.894;5.080;2023-01-29T05:15:47;102995.90;;;2.03;75.44
58967;BME280;44744;51.894;5.080;2023-01-29T05:16:51;102991.52;;;2.02;75.65
58967;BME280;44744;51.894;5.080;2023-01-29T05:17:52;102993.28;;;2.03;75.22
58967;BME280;44744;51.894;5.080;2023-01-29T05:18:53;102992.25;;;2.03;75.49
58967;BME280;44744;51.894;5.080;2023-01-29T05:19:55;102991.02;;;2.04;75.35
58967;BME280;44744;51.894;5.080;2023-01-29T05:20:56;102990.86;;;2.05;75.31
58967;BME280;44744;51.894;5.080;2023-01-29T05:21:59;102993.48;;;2.03;75.35
58967;BME280;44744;51.894;5.080;2023-01-29T05:22:59;102989.27;;;2.03;75.38
58967;BME280;44744;51.894;5.080;2023-01-29T05:24:12;102994.53;;;2.05;75.43
58967;BME280;44744;51.894;5.080;2023-01-29T05:25:22;102991.06;;;2.06;75.65
58967;BME280;44744;51.894;5.080;2023-01-29T05:26:23;102993.88;;;2.07;75.54
58967;BME280;44744;51.894;5.080;2023-01-29T05:27:30;102993.35;;;2.07;75.69
58967;BME280;44744;51.894;5.080;2023-01-29T05:28:31;102997.56;;;2.09;75.61
58967;BME280;44744;51.894;5.080;2023-01-29T05:29:32;102995.31;;;2.10;75.51
58967;BME280;44744;51.894;5.080;2023-01-29T05:30:35;102996.20;;;2.11;75.72
58967;BME280;44744;51.894;5.080;2023-01-29T05:31:35;102998.29;;;2.11;75.51
58967;BME280;44744;51.894;5.080;2023-01-29T05:32:36;103001.60;;;2.10;75.48
58967;BME280;44744;51.894;5.080;2023-01-29T05:33:36;103006.13;;;2.11;75.61
58967;BME280;44744;51.894;5.080;2023-01-29T05:34:36;103008.06;;;2.11;75.43
58967;BME280;44744;51.894;5.080;2023-01-29T05:35:37;103009.46;;;2.10;75.26
58967;BME280;44744;51.894;5.080;2023-01-29T05:36:37;103012.43;;;2.10;75.36
58967;BME280;44744;51.894;5.080;2023-01-29T05:37:37;103013.80;;;2.09;75.42
58967;BME280;44744;51.894;5.080;2023-01-29T05:38:38;103015.89;;;2.09;75.31
58967;BME280;44744;51.894;5.080;2023-01-29T05:39:38;103015.55;;;2.10;75.24
58967;BME280;44744;51.894;5.080;2023-01-29T05:40:38;103017.65;;;2.09;75.27
58967;BME280;44744;51.894;5.080;2023-01-29T05:41:39;103016.08;;;2.10;75.40
58967;BME280;44744;51.894;5.080;2023-01-29T05:42:39;103013.64;;;2.10;75.17
58967;BME280;44744;51.894;5.080;2023-01-29T05:43:40;103012.59;;;2.10;75.14
58967;BME280;44744;51.894;5.080;2023-01-29T05:44:40;103009.11;;;2.10;75.27
58967;BME280;44744;51.894;5.080;2023-01-29T05:45:40;103008.41;;;2.10;75.34
58967;BME280;44744;51.894;5.080;2023-01-29T05:46:41;103008.77;;;2.11;75.42
58967;BME280;44744;51.894;5.080;2023-01-29T05:47:41;103008.78;;;2.12;75.42
58967;BME280;44744;51.894;5.080;2023-01-29T05:48:41;103003.73;;;2.13;75.56
58967;BME280;44744;51.894;5.080;2023-01-29T05:49:42;103001.63;;;2.13;75.58
58967;BME280;44744;51.894;5.080;2023-01-29T05:50:42;102995.71;;;2.14;75.65
58967;BME280;44744;51.894;5.080;2023-01-29T05:51:43;102996.41;;;2.13;75.53
58967;BME280;44744;51.894;5.080;2023-01-29T05:52:43;102997.11;;;2.14;75.64
58967;BME280;44744;51.894;5.080;2023-01-29T05:53:43;102994.52;;;2.15;75.64
58967;BME280;44744;51.894;5.080;2023-01-29T05:54:44;102996.97;;;2.17;75.54
58967;BME280;44744;51.894;5.080;2023-01-29T05:55:48;102995.77;;;2.17;75.54
58967;BME280;44744;51.894;5.080;2023-01-29T05:56:48;102995.24;;;2.18;75.53
58967;BME280;44744;51.894;5.080;2023-01-29T05:57:48;102996.11;;;2.17;75.32
58967;BME280;44744;51.894;5.080;2023-01-29T05:58:48;102998.73;;;2.18;75.42
58967;BME280;44744;51.894;5.080;2023-01-29T05:59:49;102993.14;;;2.17;75.24
58967;BME280;44744;51.894;5.080;2023-01-29T06:01:07;102999.08;;;2.17;75.18
58967;BME280;44744;51.894;5.080;2023-01-29T06:02:07;102999.06;;;2.16;75.18
58967;BME280;44744;51.894;5.080;2023-01-29T06:03:07;102998.70;;;2.16;75.41
58967;BME280;44744;51.894;5.080;2023-01-29T06:04:08;102999.24;;;2.16;75.31
58967;BME280;44744;51.894;5.080;2023-01-29T06:05:08;102998.55;;;2.17;75.35
58967;BME280;44744;51.894;5.080;2023-01-29T06:06:08;103001.17;;;2.17;75.32
58967;BME280;44744;51.894;5.080;2023-01-29T06:07:09;103001.87;;;2.17;75.16
58967;BME280;44744;51.894;5.080;2023-01-29T06:08:09;103004.50;;;2.17;75.37
58967;BME280;44744;51.894;5.080;2023-01-29T06:09:10;103003.80;;;2.17;75.23
58967;BME280;44744;51.894;5.080;2023-01-29T06:10:15;103003.27;;;2.18;75.45
58967;BME280;44744;51.894;5.080;2023-01-29T06:11:17;103003.62;;;2.18;75.37
58967;BME280;44744;51.894;5.080;2023-01-29T06:12:17;103004.67;;;2.18;75.34
58967;BME280;44744;51.894;5.080;2023-01-29T06:13:17;102999.44;;;2.18;75.35
58967;BME280;44744;51.894;5.080;2023-01-29T06:14:18;103001.39;;;2.20;75.51
58967;BME280;44744;51.894;5.080;2023-01-29T06:15:18;102994.59;;;2.21;75.42
58967;BME280;44744;51.894;5.080;2023-01-29T06:16:18;102986.90;;;2.20;75.37